Time;durP1;ratioP1;P1;durP2;ratioP2;P2;SDS_P1;SDS_P2;PMS_P1;PMS_P2;Temp;Humidity;BMP_temperature;BMP_pressure;BME280_temperature;BME280_humidity;BME280_pressure;Samples;Min_cycle;Max_cycle;Signal;HPM_P1;HPM_P2
2022/03/17 00:01:19;;;;;;;45.25;31.80;;;;;;;4.53;100.00;101357.19;5046979;28;20091;-79
2022/03/17 00:03:45;;;;;;;45.13;32.60;;;;;;;4.56;100.00;101366.78;5051092;28;20071;-79
2022/03/17 00:06:13;;;;;;;49.90;34.70;;;;;;;4.51;100.00;101365.53;5050451;28;20032;-80
2022/03/17 00:08:39;;;;;;;44.63;33.10;;;;;;;4.16;100.00;101331.41;5049465;28;20403;-80
2022/03/17 00:11:05;;;;;;;47.95;33.47;;;;;;;4.31;100.00;101357.25;5049689;28;20037;-80
2022/03/17 00:13:30;;;;;;;46.10;33.72;;;;;;;4.28;100.00;101366.34;5047241;28;20530;-80
2022/03/17 00:15:57;;;;;;;50.17;35.65;;;;;;;4.31;100.00;101367.47;5049209;28;20442;-81
2022/03/17 00:18:23;;;;;;;49.42;36.03;;;;;;;4.20;100.00;101350.44;5046498;28;20032;-82
2022/03/17 00:20:49;;;;;;;52.05;37.08;;;;;;;4.18;100.00;101350.28;5046375;28;20037;-83
2022/03/17 00:23:14;;;;;;;54.53;37.80;;;;;;;4.26;100.00;101375.56;5031735;28;20027;-81
2022/03/17 00:25:40;;;;;;;54.17;37.45;;;;;;;4.38;100.00;101374.81;5049172;28;20488;-80
2022/03/17 00:28:06;;;;;;;55.55;38.22;;;;;;;4.38;100.00;101368.81;5049188;28;20031;-84
2022/03/17 00:30:31;;;;;;;53.88;37.58;;;;;;;4.34;100.00;101367.69;5039811;28;20079;-82
2022/03/17 00:32:57;;;;;;;48.83;36.63;;;;;;;4.40;100.00;101384.28;5046335;28;20467;-79
2022/03/17 00:38:14;;;;;;;52.80;38.28;;;;;;;4.17;100.00;101385.97;5050269;28;20560;-79
2022/03/17 00:40:41;;;;;;;55.97;38.70;;;;;;;4.14;100.00;101376.38;5050106;28;20021;-78
2022/03/17 00:43:09;;;;;;;54.10;38.80;;;;;;;4.16;100.00;101371.38;5049998;28;20655;-78
2022/03/17 00:45:35;;;;;;;55.50;40.65;;;;;;;4.21;100.00;101385.41;5050251;28;20035;-77
2022/03/17 00:48:01;;;;;;;51.35;37.15;;;;;;;4.17;100.00;101383.41;5048265;28;20029;-78
2022/03/17 00:50:26;;;;;;;54.13;39.13;;;;;;;4.08;100.00;101368.25;5050017;28;20082;-77
2022/03/17 00:52:52;;;;;;;55.55;40.63;;;;;;;3.99;100.00;101365.88;5049992;28;20033;-77
2022/03/17 00:55:20;;;;;;;59.95;40.22;;;;;;;4.05;100.00;101376.56;5048597;28;20052;-76
2022/03/17 00:57:46;;;;;;;53.03;39.60;;;;;;;4.19;100.00;101382.75;5050124;28;20017;-78
2022/03/17 01:00:16;;;;;;;50.35;38.45;;;;;;;4.21;100.00;101390.53;5049965;28;20032;-80
2022/03/17 01:02:47;;;;;;;54.13;38.60;;;;;;;4.17;100.00;101385.97;5048451;28;20035;-79
2022/03/17 01:05:14;;;;;;;52.75;38.65;;;;;;;4.11;100.00;101367.59;5048772;28;20035;-76
2022/03/17 01:07:40;;;;;;;51.72;38.30;;;;;;;4.24;100.00;101392.41;5049720;28;20029;-77
2022/03/17 01:10:08;;;;;;;50.22;38.72;;;;;;;4.27;100.00;101383.34;5049687;28;20108;-76
2022/03/17 01:12:35;;;;;;;51.72;37.45;;;;;;;4.34;100.00;101394.94;5049956;28;20029;-79
2022/03/17 01:15:01;;;;;;;51.55;36.45;;;;;;;4.40;100.00;101394.50;5049524;28;20017;-77
2022/03/17 01:17:27;;;;;;;51.20;36.38;;;;;;;4.32;100.00;101383.69;5049545;28;20047;-78
2022/03/17 01:19:52;;;;;;;50.53;36.78;;;;;;;4.30;100.00;101382.66;5062223;28;20029;-81
2022/03/17 01:22:18;;;;;;;49.55;36.55;;;;;;;4.28;100.00;101374.91;5030361;28;20483;-81
2022/03/17 01:24:45;;;;;;;48.65;34.90;;;;;;;4.38;100.00;101381.59;5034485;28;20509;-77
2022/03/17 01:27:11;;;;;;;51.40;36.28;;;;;;;4.35;100.00;101371.16;5039131;28;20018;-80
2022/03/17 01:29:38;;;;;;;46.00;34.97;;;;;;;4.44;100.00;101391.44;5030246;28;20516;-80
2022/03/17 01:32:04;;;;;;;48.95;36.10;;;;;;;4.38;100.00;101394.38;5029803;28;20025;-79
2022/03/17 01:34:30;;;;;;;45.05;34.00;;;;;;;4.31;100.00;101382.81;5029572;28;20102;-77
2022/03/17 01:36:55;;;;;;;47.17;34.78;;;;;;;4.24;100.00;101379.63;5030521;28;20570;-78
2022/03/17 01:39:20;;;;;;;47.97;35.72;;;;;;;4.13;100.00;101356.72;5029975;28;20061;-79
2022/03/17 01:41:46;;;;;;;46.38;34.78;;;;;;;4.34;100.00;101380.47;5028408;28;20072;-79
2022/03/17 01:44:11;;;;;;;47.00;34.22;;;;;;;4.47;100.00;101387.41;5028067;28;20026;-80
2022/03/17 01:49:21;;;;;;;44.00;33.10;;;;;;;4.68;100.00;101402.63;5029614;28;20141;-77
2022/03/17 01:51:48;;;;;;;39.53;32.88;;;;;;;4.57;100.00;101371.09;5029601;28;20112;-77
2022/03/17 01:54:15;;;;;;;45.70;32.22;;;;;;;4.82;100.00;101399.44;5033289;28;20833;-79
2022/03/17 01:56:42;;;;;;;43.80;32.03;;;;;;;4.87;100.00;101394.66;5044050;28;20132;-80
2022/03/17 01:59:08;;;;;;;42.53;31.25;;;;;;;4.69;100.00;101389.94;5042707;28;20033;-81
2022/03/17 02:01:33;;;;;;;42.08;31.08;;;;;;;4.42;100.00;101360.59;5047859;28;20048;-82
2022/03/17 02:03:59;;;;;;;45.05;33.55;;;;;;;4.32;100.00;101340.22;5048832;28;20114;-80
2022/03/17 02:06:24;;;;;;;39.72;30.77;;;;;;;4.56;100.00;101373.56;5048862;28;20033;-81
2022/03/17 02:08:50;;;;;;;44.65;32.63;;;;;;;4.57;100.00;101389.00;5048750;28;20487;-79
2022/03/17 02:13:59;;;;;;;44.53;32.15;;;;;;;4.58;100.00;101379.69;5050023;28;20414;-79
2022/03/17 02:16:30;;;;;;;41.58;31.75;;;;;;;4.38;100.00;101331.34;5048848;28;20029;-81
2022/03/17 02:18:57;;;;;;;42.65;30.85;;;;;;;4.58;100.00;101403.59;5050099;28;20414;-81
2022/03/17 02:21:22;;;;;;;40.50;31.10;;;;;;;4.10;100.00;101364.16;5050398;28;20148;-80
2022/03/17 02:26:32;;;;;;;49.30;34.58;;;;;;;4.29;100.00;101432.91;5050006;28;20040;-80
2022/03/17 02:28:59;;;;;;;46.67;34.13;;;;;;;4.11;100.00;101403.38;5050005;28;20029;-81
2022/03/17 02:31:26;;;;;;;116.50;68.95;;;;;;;4.33;100.00;101414.47;5049804;28;20021;-83
2022/03/17 02:33:52;;;;;;;113.47;70.38;;;;;;;4.52;100.00;101421.94;5050148;28;20029;-82
2022/03/17 02:36:18;;;;;;;56.05;39.08;;;;;;;4.43;100.00;101430.53;5053009;28;20031;-84
2022/03/17 02:38:44;;;;;;;51.13;38.03;;;;;;;4.26;100.00;101389.25;5053651;28;20182;-81
2022/03/17 02:41:10;;;;;;;46.33;33.10;;;;;;;4.47;100.00;101430.00;5053455;28;20060;-83
2022/03/17 02:43:37;;;;;;;41.22;30.00;;;;;;;4.35;100.00;101425.72;5052010;28;20538;-85
2022/03/17 02:46:02;;;;;;;39.13;29.40;;;;;;;4.34;100.00;101429.06;5052135;28;20161;-81
2022/03/17 02:48:28;;;;;;;38.75;28.92;;;;;;;4.11;100.00;101424.72;5051933;28;20086;-82
2022/03/17 02:50:54;;;;;;;40.05;29.58;;;;;;;4.20;100.00;101471.44;5052786;28;20028;-81
2022/03/17 02:53:19;;;;;;;52.83;41.25;;;;;;;4.12;100.00;101464.81;5052816;28;20131;-84
2022/03/17 02:55:45;;;;;;;52.20;33.78;;;;;;;3.84;100.00;101477.97;5051861;28;20392;-86
2022/03/17 02:58:11;;;;;;;52.63;33.83;;;;;;;3.32;100.00;101407.38;5048023;28;20393;-84
2022/03/17 03:00:37;;;;;;;51.23;34.70;;;;;;;3.78;100.00;101472.34;5064957;28;20033;-84
2022/03/17 03:03:05;;;;;;;55.22;35.22;;;;;;;3.78;100.00;101490.25;5031609;28;20030;-86
2022/03/17 03:05:31;;;;;;;51.00;34.17;;;;;;;3.50;100.00;101441.13;5032825;28;20029;-84
2022/03/17 03:07:56;;;;;;;49.88;34.08;;;;;;;3.82;100.00;101499.91;5065006;28;20381;-87
2022/03/17 03:10:22;;;;;;;51.13;35.17;;;;;;;3.94;100.00;101500.03;5043324;28;20068;-87
2022/03/17 03:12:47;;;;;;;47.78;35.38;;;;;;;4.07;100.00;101493.34;5065041;28;20047;-88
2022/03/17 03:15:13;;;;;;;49.55;34.17;;;;;;;4.01;100.00;101481.88;5048194;28;20043;-82
2022/03/17 03:17:39;;;;;;;52.50;36.92;;;;;;;4.19;100.00;101504.56;5032790;28;20067;-83
2022/03/17 03:20:06;;;;;;;54.00;35.53;;;;;;;4.16;100.00;101499.19;5064495;28;20127;-79
2022/03/17 03:22:39;;;;;;;51.95;36.25;;;;;;;4.20;100.00;101480.78;5032673;28;20030;-80
2022/03/17 03:25:05;;;;;;;44.83;33.25;;;;;;;4.30;100.00;101490.94;5032658;28;20119;-84
2022/03/17 03:27:30;;;;;;;47.97;31.90;;;;;;;4.21;100.00;101472.31;5047799;28;20040;-82
2022/03/17 03:29:57;;;;;;;43.30;32.15;;;;;;;4.38;100.00;101489.88;5032312;28;20030;-80
2022/03/17 03:32:24;;;;;;;42.47;31.50;;;;;;;4.50;100.00;101495.06;5030973;28;20029;-79
2022/03/17 03:34:50;;;;;;;42.20;31.58;;;;;;;4.52;100.00;101478.19;5030997;28;20581;-78
2022/03/17 03:37:22;;;;;;;41.55;31.33;;;;;;;4.60;100.00;101495.75;5031090;28;20033;-80
2022/03/17 03:39:49;;;;;;;43.53;31.90;;;;;;;4.48;100.00;101485.50;5047265;28;20040;-79
2022/03/17 03:42:15;;;;;;;40.00;30.75;;;;;;;4.29;100.00;101465.28;5031986;28;20037;-79
2022/03/17 03:44:40;;;;;;;43.78;29.75;;;;;;;4.49;100.00;101500.06;5032328;28;20037;-80
2022/03/17 03:47:06;;;;;;;45.40;33.83;;;;;;;4.45;100.00;101498.00;5031868;28;20496;-80
2022/03/17 03:49:32;;;;;;;40.38;30.98;;;;;;;4.21;100.00;101486.00;5030852;28;20033;-81
2022/03/17 03:51:58;;;;;;;41.15;31.27;;;;;;;4.17;100.00;101488.19;5063914;28;20025;-79
2022/03/17 03:54:23;;;;;;;53.88;37.45;;;;;;;4.16;100.00;101489.88;5032029;28;20028;-79
2022/03/17 03:56:52;;;;;;;48.20;33.72;;;;;;;4.30;100.00;101498.63;5032056;28;20025;-80
2022/03/17 03:59:20;;;;;;;45.80;33.60;;;;;;;4.28;100.00;101517.16;5032041;28;20111;-81
2022/03/17 04:01:47;;;;;;;43.58;33.67;;;;;;;4.33;100.00;101524.41;5031568;28;20026;-76
2022/03/17 04:04:19;;;;;;;44.65;31.85;;;;;;;4.40;100.00;101530.00;5031735;28;20083;-78
2022/03/17 04:06:47;;;;;;;44.25;30.15;;;;;;;4.40;100.00;101514.66;5031759;28;20038;-78
2022/03/17 04:09:17;;;;;;;41.40;29.98;;;;;;;4.42;100.00;101531.03;5031186;28;20037;-78
2022/03/17 04:11:43;;;;;;;45.75;30.35;;;;;;;4.36;100.00;101524.66;5031389;28;20053;-79
2022/03/17 04:14:09;;;;;;;41.95;29.95;;;;;;;4.25;100.00;101512.72;5029999;28;20036;-77
2022/03/17 04:16:34;;;;;;;44.67;29.75;;;;;;;4.25;100.00;101543.38;5031785;28;20033;-77
2022/03/17 04:19:00;;;;;;;50.58;36.13;;;;;;;4.32;100.00;101550.75;5031676;28;20026;-78
2022/03/17 04:21:26;;;;;;;53.33;36.63;;;;;;;4.13;100.00;101512.59;5031309;28;20045;-77
2022/03/17 04:23:53;;;;;;;47.20;33.20;;;;;;;4.12;100.00;101548.28;5030063;28;20125;-77
2022/03/17 04:26:18;;;;;;;49.42;36.97;;;;;;;4.11;100.00;101546.47;5031611;28;20036;-76
2022/03/17 04:28:43;;;;;;;46.42;33.70;;;;;;;4.27;100.00;101574.16;5031049;28;20104;-76
2022/03/17 04:31:09;;;;;;;43.28;30.80;;;;;;;4.24;100.00;101567.16;5031249;28;20084;-78
2022/03/17 04:33:35;;;;;;;41.50;30.85;;;;;;;4.00;100.00;101530.28;5046486;28;20468;-77
2022/03/17 04:36:04;;;;;;;51.28;33.42;;;;;;;4.16;100.00;101565.63;5029896;28;20421;-76
2022/03/17 04:38:30;;;;;;;49.35;36.20;;;;;;;4.19;100.00;101577.00;5068065;28;20075;-77
2022/03/17 04:40:55;;;;;;;44.15;32.83;;;;;;;4.19;100.00;101579.53;5068338;28;20060;-77
2022/03/17 04:43:21;;;;;;;44.75;31.63;;;;;;;4.03;100.00;101572.31;5067997;28;20051;-78
2022/03/17 04:45:47;;;;;;;49.90;33.45;;;;;;;4.15;100.00;101602.16;5068235;28;20048;-78
2022/03/17 04:48:14;;;;;;;41.70;30.23;;;;;;;3.96;100.00;101561.47;5051428;28;20037;-76
2022/03/17 04:50:39;;;;;;;46.65;33.70;;;;;;;4.11;100.00;101589.94;5068192;28;20039;-75
2022/03/17 04:55:55;;;;;;;42.33;29.95;;;;;;;3.91;100.00;101586.63;5047765;28;20136;-76
2022/03/17 04:58:20;;;;;;;43.92;31.08;;;;;;;3.98;100.00;101608.47;5047590;28;20157;-75
2022/03/17 05:00:46;;;;;;;43.83;31.92;;;;;;;3.76;100.00;101587.94;5047900;28;20037;-76
2022/03/17 05:03:12;;;;;;;40.58;29.02;;;;;;;3.68;100.00;101603.53;5031320;28;20549;-76
2022/03/17 05:05:38;;;;;;;39.27;26.33;;;;;;;3.62;100.00;101617.44;5048183;28;20029;-76
2022/03/17 05:08:06;;;;;;;36.93;27.10;;;;;;;3.49;100.00;101618.97;5048020;28;20037;-76
2022/03/17 05:10:35;;;;;;;100.33;67.43;;;;;;;3.36;100.00;101614.47;5010535;28;20744;-78
2022/03/17 05:13:02;;;;;;;74.18;54.00;;;;;;;2.97;100.00;101571.19;5008260;28;20050;-75
2022/03/17 05:15:28;;;;;;;46.17;33.50;;;;;;;3.28;100.00;101641.03;5007589;28;20381;-76
2022/03/17 05:17:53;;;;;;;42.37;28.60;;;;;;;3.24;100.00;101616.03;5007757;28;20045;-77
2022/03/17 05:20:19;;;;;;;39.17;26.80;;;;;;;3.43;100.00;101640.53;5006316;28;20048;-80
2022/03/17 05:22:45;;;;;;;36.13;25.90;;;;;;;3.50;100.00;101637.72;4989895;28;20041;-76
2022/03/17 05:25:11;;;;;;;36.73;26.20;;;;;;;3.51;100.00;101614.00;5008148;28;20105;-77
2022/03/17 05:27:43;;;;;;;41.80;27.07;;;;;;;3.61;100.00;101644.63;5008059;28;20065;-77
2022/03/17 05:30:11;;;;;;;37.57;25.97;;;;;;;3.47;100.00;101634.94;5008243;28;20532;-76
2022/03/17 05:32:36;;;;;;;38.50;24.70;;;;;;;3.34;100.00;101636.44;5023896;28;20040;-77
2022/03/17 05:35:02;;;;;;;42.80;26.20;;;;;;;3.26;100.00;101640.00;5048439;28;20033;-76
2022/03/17 05:37:28;;;;;;;42.17;25.80;;;;;;;3.22;100.00;101635.41;5049970;28;20053;-76
2022/03/17 05:39:53;;;;;;;43.70;27.90;;;;;;;3.18;100.00;101641.00;5050334;28;20037;-75
2022/03/17 05:42:19;;;;;;;43.27;29.93;;;;;;;3.07;100.00;101625.66;5050323;28;20162;-79
2022/03/17 05:44:44;;;;;;;43.23;29.13;;;;;;;3.20;100.00;101645.50;5048980;28;20040;-78
2022/03/17 05:47:10;;;;;;;42.00;27.40;;;;;;;3.29;100.00;101657.22;5048494;28;20056;-78
2022/03/17 05:49:35;;;;;;;45.07;28.07;;;;;;;3.23;100.00;101655.94;5050197;28;20052;-77
2022/03/17 05:52:01;;;;;;;45.67;30.27;;;;;;;3.13;100.00;101649.91;5049764;28;20577;-79
2022/03/17 05:54:26;;;;;;;43.00;27.93;;;;;;;3.12;100.00;101649.03;5050069;28;20021;-79
2022/03/17 05:56:52;;;;;;;49.37;30.63;;;;;;;3.14;100.00;101667.94;5032335;28;20467;-78
2022/03/17 05:59:17;;;;;;;48.57;31.80;;;;;;;3.18;100.00;101674.19;5048894;28;20025;-77
2022/03/17 06:01:42;;;;;;;48.07;31.07;;;;;;;3.23;100.00;101675.47;5050412;28;20040;-76
2022/03/17 06:04:08;;;;;;;48.77;31.40;;;;;;;2.81;100.00;101613.22;5048818;28;20069;-78
2022/03/17 06:06:34;;;;;;;45.97;29.93;;;;;;;3.22;100.00;101677.13;5044409;28;20036;-77
2022/03/17 06:08:59;;;;;;;50.67;33.60;;;;;;;3.36;100.00;101695.28;5029699;28;20060;-77
2022/03/17 06:11:25;;;;;;;50.70;32.23;;;;;;;3.44;100.00;101701.03;5032980;28;20187;-77
2022/03/17 06:13:53;;;;;;;56.07;33.70;;;;;;;3.46;100.00;101705.50;5032026;28;20030;-78
2022/03/17 06:16:20;;;;;;;73.73;37.17;;;;;;;3.41;100.00;101706.78;5033356;28;20021;-78
2022/03/17 06:18:47;;;;;;;66.47;36.63;;;;;;;3.48;100.00;101708.22;5033359;28;20021;-78
2022/03/17 06:21:13;;;;;;;70.33;36.50;;;;;;;3.43;100.00;101706.91;5032791;28;20116;-77
2022/03/17 06:23:38;;;;;;;76.67;39.67;;;;;;;3.18;100.00;101669.97;5034184;28;20466;-78
2022/03/17 06:26:04;;;;;;;68.23;39.23;;;;;;;3.44;100.00;101724.94;5032405;28;20025;-78
2022/03/17 06:28:29;;;;;;;59.03;35.93;;;;;;;3.37;100.00;101708.16;5033196;28;20435;-78
2022/03/17 06:30:56;;;;;;;59.40;37.73;;;;;;;3.58;100.00;101738.88;5032748;28;20472;-78
2022/03/17 06:33:22;;;;;;;57.53;37.63;;;;;;;3.55;100.00;101730.94;5033545;28;20064;-76
2022/03/17 06:35:47;;;;;;;61.40;37.83;;;;;;;3.60;100.00;101739.00;5033093;28;20057;-77
2022/03/17 06:38:13;;;;;;;60.77;36.43;;;;;;;3.34;100.00;101705.38;5033735;28;20025;-76
2022/03/17 06:40:38;;;;;;;58.47;36.37;;;;;;;3.45;100.00;101728.34;5046009;28;20034;-78
2022/03/17 06:43:04;;;;;;;70.47;40.93;;;;;;;3.45;100.00;101715.59;5032668;28;20032;-77
2022/03/17 06:45:30;;;;;;;62.17;39.33;;;;;;;3.68;100.00;101754.19;5031489;28;20292;-77
2022/03/17 06:47:55;;;;;;;61.70;36.80;;;;;;;3.64;100.00;101751.25;5032610;28;20042;-78
2022/03/17 06:50:22;;;;;;;71.27;37.23;;;;;;;3.77;100.00;101768.53;5032443;28;20089;-76
2022/03/17 06:52:48;;;;;;;76.23;38.37;;;;;;;3.83;100.00;101776.72;5032139;28;20036;-76
2022/03/17 06:55:14;;;;;;;90.32;38.95;;;;;;;3.57;100.00;101739.63;5032034;28;20025;-79
2022/03/17 06:57:40;;;;;;;65.43;40.93;;;;;;;3.84;100.00;101776.84;5046228;28;20064;-78
2022/03/17 07:00:09;;;;;;;63.87;39.33;;;;;;;3.79;100.00;101742.34;5049458;28;20108;-78
2022/03/17 07:02:34;;;;;;;63.05;39.05;;;;;;;4.04;100.00;101765.75;5052089;28;20052;-78
2022/03/17 07:05:00;;;;;;;61.95;38.70;;;;;;;4.23;100.00;101764.75;5051944;28;20501;-77
2022/03/17 07:07:27;;;;;;;57.70;38.50;;;;;;;4.21;100.00;101773.94;5052473;28;20032;-78
2022/03/17 07:09:53;;;;;;;54.25;36.30;;;;;;;4.26;100.00;101775.25;5050988;28;20511;-78
2022/03/17 07:12:18;;;;;;;57.28;34.25;;;;;;;4.38;100.00;101796.69;5052305;28;20174;-77
2022/03/17 07:14:44;;;;;;;54.75;34.13;;;;;;;4.35;100.00;101778.53;5052689;28;20036;-78
2022/03/17 07:17:09;;;;;;;53.17;33.97;;;;;;;4.43;100.00;101768.06;5050737;28;20044;-74
2022/03/17 07:19:35;;;;;;;53.42;34.53;;;;;;;4.64;100.00;101784.28;5047055;28;20029;-73
2022/03/17 07:22:00;;;;;;;54.60;34.72;;;;;;;4.61;100.00;101779.81;5050258;28;20028;-75
2022/03/17 07:24:26;;;;;;;51.70;34.10;;;;;;;4.72;100.00;101790.91;5050336;28;20419;-75
2022/03/17 07:26:52;;;;;;;53.17;35.00;;;;;;;4.65;100.00;101763.94;5052755;28;20040;-75
2022/03/17 07:29:17;;;;;;;50.85;33.03;;;;;;;4.88;100.00;101799.84;5049801;28;20028;-77
2022/03/17 07:31:43;;;;;;;51.88;31.55;;;;;;;4.92;100.00;101797.66;5044093;28;20474;-75
2022/03/17 07:34:09;;;;;;;50.47;29.73;;;;;;;4.94;100.00;101808.91;5043964;28;20123;-75
2022/03/17 07:36:35;;;;;;;47.47;30.17;;;;;;;4.92;100.00;101807.91;5035649;28;20411;-77
2022/03/17 07:39:02;;;;;;;59.95;33.08;;;;;;;5.00;100.00;101822.19;5049549;28;20491;-76
2022/03/17 07:41:29;;;;;;;51.03;31.80;;;;;;;5.01;100.00;101818.88;5048225;28;20123;-77
2022/03/17 07:43:55;;;;;;;55.13;30.05;;;;;;;4.97;100.00;101813.38;5047226;28;20033;-77
2022/03/17 07:46:20;;;;;;;63.72;33.55;;;;;;;4.62;100.00;101773.00;5051791;28;20021;-77
2022/03/17 07:48:46;;;;;;;57.88;31.45;;;;;;;4.95;100.00;101831.16;5051646;28;20025;-77
2022/03/17 07:51:11;;;;;;;65.32;32.70;;;;;;;4.91;100.00;101811.22;5052005;28;20048;-77
2022/03/17 07:53:37;;;;;;;57.30;29.65;;;;;;;5.06;100.00;101828.56;5051750;28;20025;-76
2022/03/17 07:56:03;;;;;;;67.28;31.50;;;;;;;5.07;100.00;101833.84;5052277;28;20071;-75
2022/03/17 07:58:29;;;;;;;58.83;27.58;;;;;;;5.11;100.00;101846.13;5052312;28;20029;-75
2022/03/17 08:00:56;;;;;;;49.78;25.90;;;;;;;5.08;100.00;101833.06;5052371;28;20037;-75
2022/03/17 08:03:22;;;;;;;35.83;20.80;;;;;;;5.11;100.00;101837.53;5051819;28;20025;-75
2022/03/17 08:05:50;;;;;;;25.45;16.90;;;;;;;5.07;100.00;101827.81;5052130;28;20025;-75
2022/03/17 08:08:17;;;;;;;42.67;21.10;;;;;;;5.12;100.00;101831.63;5052064;28;20099;-75
2022/03/17 08:10:43;;;;;;;48.42;20.88;;;;;;;5.08;100.00;101816.81;5052236;28;20053;-75
2022/03/17 08:13:09;;;;;;;33.20;17.63;;;;;;;5.04;100.00;101796.88;5052004;28;20041;-75
2022/03/17 08:15:39;;;;;;;43.75;17.40;;;;;;;5.49;100.00;101838.03;5052104;28;20468;-75
2022/03/17 08:18:06;;;;;;;35.78;17.10;;;;;;;5.67;100.00;101840.28;5052281;28;20035;-76
2022/03/17 08:20:32;;;;;;;39.90;17.98;;;;;;;5.87;100.00;101840.94;5051916;28;20121;-76
2022/03/17 08:22:57;;;;;;;43.83;21.75;;;;;;;6.08;100.00;101828.94;5051877;28;20060;-76
2022/03/17 08:25:23;;;;;;;31.17;15.90;;;;;;;6.26;100.00;101832.91;5051818;28;20558;-76
2022/03/17 08:27:52;;;;;;;24.90;13.63;;;;;;;6.47;100.00;101835.31;5051897;28;20503;-76
2022/03/17 08:30:17;;;;;;;28.15;14.20;;;;;;;6.56;100.00;101830.88;5051452;28;20040;-76
2022/03/17 08:32:43;;;;;;;24.70;14.38;;;;;;;6.75;100.00;101835.72;5050956;28;20028;-76
2022/03/17 08:35:10;;;;;;;33.30;15.15;;;;;;;6.71;100.00;101827.69;5051206;28;20025;-75
2022/03/17 08:37:43;;;;;;;16.70;10.02;;;;;;;6.86;100.00;101835.63;5051428;28;20029;-77
2022/03/17 08:40:10;;;;;;;21.95;10.85;;;;;;;6.95;100.00;101842.34;5051283;28;20036;-77
2022/03/17 08:42:36;;;;;;;17.02;10.60;;;;;;;6.97;100.00;101840.75;5051577;28;20074;-77
2022/03/17 08:49:18;;;;;;;13.50;9.77;;;;;;;7.13;100.00;101842.78;5051074;28;20111;-77
2022/03/17 08:50:32;;;;;;;42.85;17.63;;;;;;;6.75;100.00;101814.28;5051484;28;20452;-77
2022/03/17 08:52:58;;;;;;;22.25;11.63;;;;;;;6.94;100.00;101849.91;5049951;28;20028;-78
2022/03/17 08:55:24;;;;;;;17.33;9.50;;;;;;;6.77;100.00;101851.22;5051400;28;20033;-80
2022/03/17 08:57:49;;;;;;;19.42;10.38;;;;;;;6.41;100.00;101822.91;5051333;28;20030;-80
2022/03/17 09:00:15;;;;;;;25.33;11.40;;;;;;;6.52;100.00;101854.53;5049659;28;20463;-80
2022/03/17 09:02:44;;;;;;;23.80;10.48;;;;;;;6.18;100.00;101803.25;5051274;28;20025;-80
2022/03/17 09:05:10;;;;;;;15.27;8.23;;;;;;;6.32;100.00;101848.75;5050804;28;20082;-80
2022/03/17 09:07:36;;;;;;;27.08;11.70;;;;;;;6.31;100.00;101849.53;5048344;28;20043;-80
2022/03/17 09:10:02;;;;;;;34.13;11.80;;;;;;;6.38;100.00;101868.88;5047771;28;20049;-80
2022/03/17 09:12:30;;;;;;;10.50;6.70;;;;;;;6.13;100.00;101853.25;5048086;28;20474;-80
2022/03/17 09:14:56;;;;;;;15.15;7.15;;;;;;;5.96;100.00;101863.06;5048415;28;20039;-80
2022/03/17 09:17:21;;;;;;;17.08;7.82;;;;;;;5.76;100.00;101835.00;5048021;28;20033;-80
2022/03/17 09:19:46;;;;;;;12.60;6.93;;;;;;;6.06;100.00;101867.28;5048355;28;20106;-80
2022/03/17 09:22:12;;;;;;;11.75;5.85;;;;;;;6.11;100.00;101876.22;5048043;28;20036;-79
2022/03/17 09:24:37;;;;;;;13.45;6.35;;;;;;;5.95;100.00;101861.28;5048206;28;20033;-79
2022/03/17 09:27:03;;;;;;;28.08;7.90;;;;;;;6.02;100.00;101874.59;5048348;28;20029;-79
2022/03/17 09:29:29;;;;;;;12.02;5.88;;;;;;;6.18;100.00;101887.84;5048256;28;20044;-79
2022/03/17 09:31:58;;;;;;;22.77;8.00;;;;;;;6.20;100.00;101901.66;5047648;28;20053;-79
2022/03/17 09:34:23;;;;;;;15.27;4.80;;;;;;;6.22;100.00;101884.75;5031486;28;20526;-79
2022/03/17 09:36:48;;;;;;;27.25;7.45;;;;;;;6.11;100.00;101895.84;5048154;28;20048;-78
2022/03/17 09:41:59;;;;;;;21.20;6.88;;;;;;;6.11;100.00;101903.53;5048559;28;20031;-79
2022/03/17 09:44:24;;;;;;;13.07;4.88;;;;;;;6.03;100.00;101887.56;5047179;28;20044;-79
2022/03/17 09:46:54;;;;;;;15.20;5.45;;;;;;;6.05;100.00;101896.25;5034910;28;20460;-80
2022/03/17 09:49:20;;;;;;;17.55;5.93;;;;;;;5.79;100.00;101865.97;5034913;28;20029;-79
2022/03/17 09:51:48;;;;;;;18.75;6.38;;;;;;;5.99;100.00;101891.56;5034821;28;20041;-82
2022/03/17 09:54:13;;;;;;;6.53;3.00;;;;;;;6.03;100.00;101891.78;5035088;28;20029;-79
2022/03/17 09:56:39;;;;;;;19.90;5.93;;;;;;;6.00;100.00;101889.88;5034741;28;20391;-80
2022/03/17 09:59:06;;;;;;;19.50;5.05;;;;;;;6.13;100.00;101900.31;5034721;28;20514;-79
2022/03/17 10:01:33;;;;;;;32.90;9.27;;;;;;;6.28;100.00;101908.31;5034710;28;20040;-79
2022/03/17 10:04:00;;;;;;;29.33;6.57;;;;;;;6.28;100.00;101921.13;5033161;28;20033;-79
2022/03/17 10:06:28;;;;;;;27.15;7.53;;;;;;;6.19;100.00;101907.56;5034465;28;20026;-79
2022/03/17 10:08:55;;;;;;;16.00;4.97;;;;;;;6.19;100.00;101914.38;5037504;28;20028;-80
2022/03/17 10:11:39;;;;;;;4.88;2.42;;;;;;;6.20;100.00;101914.50;5035832;28;20057;-80
2022/03/17 10:14:05;;;;;;;13.05;3.40;;;;;;;6.20;100.00;101917.06;5054473;28;20128;-80
2022/03/17 10:16:31;;;;;;;13.45;3.92;;;;;;;6.12;100.00;101908.78;5054438;28;20463;-79
2022/03/17 10:19:02;;;;;;;18.42;4.70;;;;;;;5.96;100.00;101881.00;5054339;28;20372;-79
2022/03/17 10:21:28;;;;;;;18.63;5.97;;;;;;;6.04;100.00;101917.53;5053941;28;20029;-79
2022/03/17 10:24:06;;;;;;;10.40;3.65;;;;;;;6.03;100.00;101922.53;5054115;28;20484;-79
2022/03/17 10:26:51;;;;;;;25.70;7.53;;;;;;;5.98;100.00;101917.97;5054271;28;20467;-79
2022/03/17 10:29:22;;;;;;;6.13;2.72;;;;;;;6.08;100.00;101923.78;5053705;28;20487;-80
2022/03/17 10:31:56;;;;;;;8.18;2.92;;;;;;;6.17;100.00;101932.22;5053708;28;20390;-79
2022/03/17 10:34:29;;;;;;;9.48;2.70;;;;;;;6.18;100.00;101936.59;5053851;28;20036;-79
2022/03/17 10:37:16;;;;;;;6.55;2.30;;;;;;;6.05;100.00;101932.13;5051455;28;20095;-79
2022/03/17 10:39:47;;;;;;;9.57;3.42;;;;;;;5.97;100.00;101936.63;5047348;28;20447;-79
2022/03/17 10:42:29;;;;;;;6.88;2.40;;;;;;;5.97;100.00;101946.00;5042640;28;20029;-80
2022/03/17 10:44:58;;;;;;;11.73;3.05;;;;;;;5.94;100.00;101949.22;5043781;28;20032;-79
2022/03/17 10:47:24;;;;;;;5.45;2.30;;;;;;;5.99;100.00;101955.63;5051230;28;20072;-79
2022/03/17 10:50:09;;;;;;;3.92;2.40;;;;;;;5.93;100.00;101956.75;5053225;28;20029;-78
2022/03/17 10:52:47;;;;;;;4.40;2.65;;;;;;;5.77;100.00;101958.13;5053309;28;20037;-79
2022/03/17 10:55:14;;;;;;;6.05;2.97;;;;;;;5.73;100.00;101962.88;5052706;28;20191;-79
2022/03/17 10:57:39;;;;;;;3.22;2.08;;;;;;;5.41;100.00;101954.38;5052990;28;20060;-80
2022/03/17 11:00:09;;;;;;;13.57;3.05;;;;;;;5.45;100.00;101961.53;5051162;28;20475;-79
2022/03/17 11:02:37;;;;;;;;;;;;;;;5.38;100.00;101974.59;5047536;28;20031;-79
2022/03/17 11:05:06;;;;;;;7.70;2.92;;;;;;;5.30;100.00;101961.16;5052614;28;19920;-79
2022/03/17 11:07:32;;;;;;;7.07;3.05;;;;;;;5.21;100.00;101931.34;5033145;28;20112;-79
2022/03/17 11:10:05;;;;;;;10.35;3.90;;;;;;;5.50;100.00;101956.78;5047884;28;20041;-80
2022/03/17 11:12:30;;;;;;;7.07;2.80;;;;;;;5.65;100.00;101945.19;5049700;28;20049;-80
2022/03/17 11:14:56;;;;;;;13.20;3.65;;;;;;;5.59;100.00;101906.28;5052800;28;20039;-78
2022/03/17 11:17:26;;;;;;;7.60;3.72;;;;;;;5.52;100.00;101904.03;5053363;28;20037;-77
2022/03/17 11:19:54;;;;;;;8.05;3.10;;;;;;;5.64;100.00;101948.53;5050655;28;20045;-78
2022/03/17 11:22:28;;;;;;;8.10;3.42;;;;;;;5.73;100.00;101962.88;5052988;28;20065;-78
2022/03/17 11:25:17;;;;;;;17.30;5.40;;;;;;;5.74;100.00;101960.41;5053016;28;20116;-78
2022/03/17 11:27:48;;;;;;;6.95;3.00;;;;;;;5.61;100.00;101943.16;5052767;28;20115;-78
2022/03/17 11:30:14;;;;;;;14.07;4.50;;;;;;;5.63;100.00;101944.19;5051429;28;20518;-79